createdAt,value
2024-04-10T00:00:54.550Z,10.74
2024-04-10T00:01:54.223Z,10.74
2024-04-10T00:02:54.418Z,10.70
2024-04-10T00:04:16.696Z,10.70
2024-04-10T00:04:54.591Z,10.68
2024-04-10T00:05:54.737Z,10.68
2024-04-10T00:06:54.377Z,10.66
2024-04-10T00:07:54.636Z,10.66
2024-04-10T00:08:54.308Z,10.66
2024-04-10T00:09:54.533Z,10.64
2024-04-10T00:10:54.322Z,10.63
2024-04-10T00:11:54.553Z,10.61
2024-04-10T00:12:54.183Z,10.59
2024-04-10T00:14:15.441Z,10.60
2024-04-10T00:14:54.157Z,10.56
2024-04-10T00:15:54.414Z,10.52
2024-04-10T00:16:54.136Z,10.53
2024-04-10T00:17:54.410Z,10.52
2024-04-10T00:18:54.240Z,10.51
2024-04-10T00:19:54.301Z,10.48
2024-04-10T00:20:54.005Z,10.48
2024-04-10T00:21:54.227Z,10.47
2024-04-10T00:22:54.447Z,10.44
2024-04-10T00:24:15.648Z,10.40
2024-04-10T00:24:54.431Z,10.40
2024-04-10T00:25:54.168Z,10.38
2024-04-10T00:26:54.382Z,10.38
2024-04-10T00:27:54.122Z,10.40
2024-04-10T00:28:54.375Z,10.36
2024-04-10T00:29:54.082Z,10.34
2024-04-10T00:30:54.271Z,10.33
2024-04-10T00:31:54.064Z,10.32
2024-04-10T00:33:00.985Z,10.30
2024-04-10T00:34:16.372Z,10.30
2024-04-10T00:34:54.047Z,10.30
2024-04-10T00:35:54.231Z,10.30
2024-04-10T00:36:53.949Z,10.30
2024-04-10T00:37:54.233Z,10.27
2024-04-10T00:38:53.928Z,10.27
2024-04-10T00:39:54.143Z,10.26
2024-04-10T00:40:53.884Z,10.27
2024-04-10T00:41:54.076Z,10.26
2024-04-10T00:42:53.807Z,10.26
2024-04-10T00:44:15.564Z,10.26
2024-04-10T00:44:53.769Z,10.25
2024-04-10T00:45:54.001Z,10.20
2024-04-10T00:47:01.682Z,10.20
2024-04-10T00:47:54.009Z,10.20
2024-04-10T00:48:54.156Z,10.18
2024-04-10T00:49:53.784Z,10.17
2024-04-10T00:50:53.936Z,10.15
2024-04-10T00:51:54.152Z,10.12
2024-04-10T00:52:53.942Z,10.09
2024-04-10T00:54:16.090Z,10.09
2024-04-10T00:54:53.878Z,10.09
2024-04-10T00:55:54.143Z,10.09
2024-04-10T00:56:53.825Z,10.08
2024-04-10T00:57:54.037Z,10.08
2024-04-10T00:58:53.764Z,10.08
2024-04-10T00:59:53.978Z,10.04
2024-04-10T01:00:53.758Z,10.01
2024-04-10T01:01:53.974Z,10.01
2024-04-10T01:02:53.732Z,10.01
2024-04-10T01:04:14.724Z,9.99
2024-04-10T01:04:53.788Z,9.99
2024-04-10T01:05:53.882Z,9.97
2024-04-10T01:06:53.586Z,9.96
2024-04-10T01:07:53.830Z,9.94
2024-04-10T01:08:53.534Z,9.93
2024-04-10T01:09:53.789Z,9.93
2024-04-10T01:10:53.511Z,9.93
2024-04-10T01:11:54.054Z,9.90
2024-04-10T01:12:53.454Z,9.90
2024-04-10T01:14:15.233Z,9.87
2024-04-10T01:15:01.196Z,9.87
2024-04-10T01:15:53.507Z,9.84
2024-04-10T01:16:53.946Z,9.86
2024-04-10T01:17:53.579Z,9.86
2024-04-10T01:18:53.693Z,9.84
2024-04-10T01:19:53.420Z,9.83
2024-04-10T01:20:53.630Z,9.83
2024-04-10T01:21:53.843Z,9.79
2024-04-10T01:22:53.615Z,9.78
2024-04-10T01:24:19.073Z,9.76
2024-04-10T01:24:53.788Z,9.76
2024-04-10T01:25:53.569Z,9.76
2024-04-10T01:26:53.753Z,9.76
2024-04-10T01:27:53.466Z,9.78
2024-04-10T01:28:53.735Z,9.78
2024-04-10T01:29:53.412Z,9.81
2024-04-10T01:30:53.654Z,9.79
2024-04-10T01:31:53.476Z,9.86
2024-04-10T01:32:54.156Z,9.87
2024-04-10T01:34:15.544Z,9.91
2024-04-10T01:34:53.720Z,9.93
2024-04-10T01:35:53.563Z,9.91
2024-04-10T01:36:53.690Z,9.94
2024-04-10T01:37:53.526Z,9.94
2024-04-10T01:38:53.607Z,9.96
2024-04-10T01:39:53.413Z,9.97
2024-04-10T01:40:53.773Z,9.99
2024-04-10T01:41:53.444Z,9.99
2024-04-10T01:42:53.607Z,10.01
2024-04-10T01:44:15.452Z,10.01
2024-04-10T01:44:53.732Z,9.99
2024-04-10T01:45:53.390Z,9.97
2024-04-10T01:46:53.295Z,9.96
2024-04-10T01:47:53.563Z,9.96
2024-04-10T01:48:53.297Z,9.94
2024-04-10T01:49:53.439Z,9.94
2024-04-10T01:50:53.285Z,9.94
2024-04-10T01:51:53.659Z,9.94
2024-04-10T01:52:53.619Z,9.93
2024-04-10T01:54:13.676Z,9.93
2024-04-10T01:54:53.411Z,9.91
2024-04-10T01:55:53.213Z,9.90
2024-04-10T01:56:53.380Z,9.86
2024-04-10T01:57:53.208Z,9.86
2024-04-10T01:58:53.503Z,9.86
2024-04-10T01:59:53.069Z,9.83
2024-04-10T02:00:53.380Z,9.83
2024-04-10T02:01:53.086Z,9.84
2024-04-10T02:02:53.424Z,9.81
2024-04-10T02:04:15.111Z,9.83
2024-04-10T02:04:53.282Z,9.81
2024-04-10T02:05:52.983Z,9.79
2024-04-10T02:06:53.204Z,9.78
2024-04-10T02:07:53.414Z,9.78
2024-04-10T02:08:53.114Z,9.75
2024-04-10T02:09:53.331Z,9.75
2024-04-10T02:10:53.124Z,9.74
2024-04-10T02:11:53.404Z,9.72
2024-04-10T02:12:53.042Z,9.71
2024-04-10T02:14:13.859Z,9.68
2024-04-10T02:14:53.165Z,9.66
2024-04-10T02:15:52.884Z,9.64
2024-04-10T02:16:53.253Z,9.64
2024-04-10T02:17:53.024Z,9.61
2024-04-10T02:18:53.088Z,9.60
2024-04-10T02:19:53.311Z,9.58
2024-04-10T02:20:53.015Z,9.56
2024-04-10T02:21:52.742Z,9.57
2024-04-10T02:22:53.007Z,9.54
2024-04-10T02:24:14.710Z,9.56
2024-04-10T02:24:52.984Z,9.56
2024-04-10T02:25:53.233Z,9.53
2024-04-10T02:26:52.914Z,9.53
2024-04-10T02:27:53.145Z,9.54
2024-04-10T02:28:52.886Z,9.53
2024-04-10T02:29:53.085Z,9.51
2024-04-10T02:30:52.807Z,9.53
2024-04-10T02:31:53.100Z,9.50
2024-04-10T02:32:53.068Z,9.50
2024-04-10T02:34:15.102Z,9.51
2024-04-10T02:34:52.796Z,9.51
2024-04-10T02:35:53.000Z,9.50
2024-04-10T02:36:52.718Z,9.48
2024-04-10T02:37:52.952Z,9.48
2024-04-10T02:38:52.656Z,9.50
2024-04-10T02:39:52.876Z,9.51
2024-04-10T02:40:52.628Z,9.53
2024-04-10T02:41:52.833Z,9.54
2024-04-10T02:42:53.268Z,9.56
2024-04-10T02:44:12.863Z,9.57
2024-04-10T02:44:54.600Z,9.60
2024-04-10T02:45:54.903Z,9.61
2024-04-10T02:46:54.622Z,9.64
2024-04-10T02:47:53.721Z,9.66
2024-04-10T02:48:54.661Z,9.68
2024-04-10T02:49:53.991Z,9.69
2024-04-10T02:50:54.735Z,9.69
2024-04-10T02:51:54.485Z,9.69
2024-04-10T02:52:54.824Z,9.71
2024-04-10T02:54:12.638Z,9.68
2024-04-10T02:54:53.636Z,9.68
2024-04-10T02:55:53.667Z,9.68
2024-04-10T02:56:53.898Z,9.66
2024-04-10T02:57:53.405Z,9.69
2024-04-10T02:58:54.502Z,9.71
2024-04-10T02:59:54.733Z,9.72
2024-04-10T03:00:52.755Z,9.74
2024-04-10T03:01:54.411Z,9.71
2024-04-10T03:02:54.741Z,9.74
2024-04-10T03:04:12.452Z,9.76
2024-04-10T03:04:54.653Z,9.76
2024-04-10T03:05:54.436Z,9.78
2024-04-10T03:06:53.706Z,9.78
2024-04-10T03:07:54.490Z,9.78
2024-04-10T03:08:54.306Z,9.79
2024-04-10T03:09:54.172Z,9.83
2024-04-10T03:10:53.076Z,9.81
2024-04-10T03:11:54.733Z,9.83
2024-04-10T03:12:53.460Z,9.83
2024-04-10T03:14:12.257Z,9.83
2024-04-10T03:14:54.437Z,9.81
2024-04-10T03:15:54.205Z,9.79
2024-04-10T03:16:54.601Z,9.81
2024-04-10T03:17:54.334Z,9.78
2024-04-10T03:18:53.619Z,9.78
2024-04-10T03:19:53.160Z,9.76
2024-04-10T03:20:54.615Z,9.78
2024-04-10T03:21:53.412Z,9.78
2024-04-10T03:22:56.032Z,9.76
2024-04-10T03:24:13.420Z,9.79
2024-04-10T03:24:54.174Z,9.78
2024-04-10T03:25:54.583Z,9.78
2024-04-10T03:26:54.296Z,9.79
2024-04-10T03:27:54.069Z,9.79
2024-04-10T03:28:54.439Z,9.81
2024-04-10T03:29:53.166Z,9.79
2024-04-10T03:30:54.389Z,9.79
2024-04-10T03:31:54.234Z,9.76
2024-04-10T03:32:53.296Z,9.78
2024-04-10T03:34:12.369Z,9.81
2024-04-10T03:34:53.516Z,9.81
2024-04-10T03:35:54.241Z,9.79
2024-04-10T03:36:54.029Z,9.81
2024-04-10T03:37:54.331Z,9.81
2024-04-10T03:38:54.041Z,9.83
2024-04-10T03:39:53.315Z,9.83
2024-04-10T03:40:53.153Z,9.84
2024-04-10T03:41:54.014Z,9.84
2024-04-10T03:42:54.272Z,9.84
2024-04-10T03:44:12.118Z,9.84
2024-04-10T03:44:54.317Z,9.84
2024-04-10T03:45:53.070Z,9.86
2024-04-10T03:46:53.472Z,9.84
2024-04-10T03:47:54.361Z,9.84
2024-04-10T03:48:54.027Z,9.84
2024-04-10T03:49:53.254Z,9.84
2024-04-10T03:50:52.366Z,9.84
2024-04-10T03:51:53.257Z,9.86
2024-04-10T03:52:53.139Z,9.87
2024-04-10T03:54:11.825Z,9.86
2024-04-10T03:54:54.033Z,9.86
2024-04-10T03:55:53.887Z,9.87
2024-04-10T03:56:54.085Z,9.87
2024-04-10T03:57:52.937Z,9.89
2024-04-10T03:58:53.294Z,9.89
2024-04-10T03:59:52.702Z,9.87
2024-04-10T04:00:53.796Z,9.87
2024-04-10T04:01:54.073Z,9.87
2024-04-10T04:02:53.901Z,9.86
2024-04-10T04:04:12.120Z,9.84
2024-04-10T04:04:53.824Z,9.81
2024-04-10T04:05:53.580Z,9.79
2024-04-10T04:06:53.841Z,9.76
2024-04-10T04:07:54.202Z,9.76
2024-04-10T04:08:53.899Z,9.75
2024-04-10T04:09:52.654Z,9.75
2024-04-10T04:10:52.820Z,9.74
2024-04-10T04:11:53.851Z,9.72
2024-04-10T04:12:53.518Z,9.74
2024-04-10T04:14:11.851Z,9.72
2024-04-10T04:14:52.310Z,9.71
2024-04-10T04:15:52.378Z,9.71
2024-04-10T04:16:52.609Z,9.68
2024-04-10T04:17:52.965Z,9.66
2024-04-10T04:18:53.159Z,9.65
2024-04-10T04:19:53.933Z,9.60
2024-04-10T04:20:53.739Z,9.60
2024-04-10T04:21:52.966Z,9.56
2024-04-10T04:22:53.859Z,9.54
2024-04-10T04:24:20.661Z,9.51
2024-04-10T04:24:53.364Z,9.48
2024-04-10T04:25:52.763Z,9.48
2024-04-10T04:26:53.543Z,9.47
2024-04-10T04:27:52.808Z,9.43
2024-04-10T04:28:53.653Z,9.43
2024-04-10T04:29:53.873Z,9.39
2024-04-10T04:30:52.611Z,9.36
2024-04-10T04:31:53.433Z,9.35
2024-04-10T04:32:53.331Z,9.32
2024-04-10T04:34:11.640Z,9.29
2024-04-10T04:34:53.686Z,9.29
2024-04-10T04:35:53.430Z,9.24
2024-04-10T04:36:53.742Z,9.21
2024-04-10T04:37:53.516Z,9.18
2024-04-10T04:38:52.584Z,9.17
2024-04-10T04:39:52.623Z,9.15
2024-04-10T04:40:53.412Z,9.17
2024-04-10T04:41:53.606Z,9.15
2024-04-10T04:42:53.420Z,9.13
2024-04-10T04:44:13.806Z,9.11
2024-04-10T04:44:52.431Z,9.11
2024-04-10T04:45:52.667Z,9.05
2024-04-10T04:46:53.025Z,9.05
2024-04-10T04:47:53.281Z,9.04
2024-04-10T04:48:53.186Z,9.02
2024-04-10T04:49:53.363Z,9.01
2024-04-10T04:50:53.988Z,9.01
2024-04-10T04:51:51.363Z,8.99
2024-04-10T04:52:51.742Z,9.01
2024-04-10T04:54:12.297Z,8.99
2024-04-10T04:54:53.644Z,8.99
2024-04-10T04:55:53.402Z,8.95
2024-04-10T04:56:52.222Z,8.96
2024-04-10T04:57:52.499Z,8.95
2024-04-10T04:58:53.406Z,8.96
2024-04-10T04:59:53.070Z,8.94
2024-04-10T05:00:53.421Z,8.95
2024-04-10T05:01:53.190Z,8.95
2024-04-10T05:02:52.092Z,8.95
2024-04-10T05:04:11.259Z,8.95
2024-04-10T05:04:53.480Z,8.95
2024-04-10T05:05:52.722Z,8.95
2024-04-10T05:06:53.483Z,8.94
2024-04-10T05:07:53.323Z,8.95
2024-04-10T05:08:53.026Z,8.95
2024-04-10T05:09:51.828Z,8.95
2024-04-10T05:10:51.172Z,8.95
2024-04-10T05:11:51.511Z,8.95
2024-04-10T05:12:52.562Z,8.96
2024-04-10T05:14:11.370Z,8.96
2024-04-10T05:14:52.120Z,8.96
2024-04-10T05:15:52.423Z,8.96
2024-04-10T05:16:53.182Z,8.96
2024-04-10T05:17:53.154Z,8.98
2024-04-10T05:18:53.220Z,8.98
2024-04-10T05:19:51.422Z,8.98
2024-04-10T05:20:52.376Z,8.98
2024-04-10T05:21:52.057Z,8.98
2024-04-10T05:22:51.389Z,8.98
2024-04-10T05:24:13.082Z,8.98
2024-04-10T05:24:51.324Z,8.96
2024-04-10T05:25:50.516Z,8.95
2024-04-10T05:26:51.319Z,8.96
2024-04-10T05:27:51.370Z,8.96
2024-04-10T05:28:52.301Z,8.94
2024-04-10T05:29:51.825Z,8.89
2024-04-10T05:30:53.087Z,8.87
2024-04-10T05:31:52.268Z,8.86
2024-04-10T05:32:51.022Z,8.86
2024-04-10T05:34:11.205Z,8.87
2024-04-10T05:34:51.752Z,8.87
2024-04-10T05:35:53.035Z,8.87
2024-04-10T05:36:52.788Z,8.87
2024-04-10T05:37:51.240Z,8.89
2024-04-10T05:38:52.259Z,8.91
2024-04-10T05:39:51.217Z,8.92
2024-04-10T05:40:51.719Z,8.92
2024-04-10T05:41:52.155Z,8.95
2024-04-10T05:42:52.128Z,8.98
2024-04-10T05:44:10.240Z,8.99
2024-04-10T05:44:51.113Z,9.01
2024-04-10T05:45:51.214Z,9.02
2024-04-10T05:46:52.173Z,9.05
2024-04-10T05:47:51.421Z,9.10
2024-04-10T05:48:52.311Z,9.13
2024-04-10T05:49:52.111Z,9.14
2024-04-10T05:50:50.882Z,9.17
2024-04-10T05:51:51.092Z,9.20
2024-04-10T05:52:51.082Z,9.24
2024-04-10T05:54:10.800Z,9.28
2024-04-10T05:54:52.563Z,9.31
2024-04-10T05:55:51.618Z,9.33
2024-04-10T05:56:52.602Z,9.36
2024-04-10T05:57:51.856Z,9.42
2024-04-10T05:58:52.648Z,9.47
2024-04-10T05:59:52.864Z,9.54
2024-04-10T06:00:54.978Z,9.60
2024-04-10T06:01:52.960Z,9.64
2024-04-10T06:02:52.864Z,9.68
2024-04-10T06:04:11.996Z,9.75
2024-04-10T06:04:58.011Z,9.76
2024-04-10T06:05:50.729Z,9.86
2024-04-10T06:06:50.442Z,9.93
2024-04-10T06:07:50.701Z,9.99
2024-04-10T06:08:50.378Z,10.07
2024-04-10T06:09:50.604Z,10.12
2024-04-10T06:10:50.877Z,10.20
2024-04-10T06:11:50.653Z,10.32
2024-04-10T06:12:50.762Z,10.42
2024-04-10T06:14:12.539Z,10.61
2024-04-10T06:14:50.746Z,10.70
2024-04-10T06:15:50.475Z,10.81
2024-04-10T06:16:50.763Z,10.92
2024-04-10T06:17:50.464Z,11.03
2024-04-10T06:18:50.626Z,11.15
2024-04-10T06:19:50.439Z,11.25
2024-04-10T06:20:50.574Z,11.21
2024-04-10T06:21:50.304Z,11.21
2024-04-10T06:22:50.550Z,11.17
2024-04-10T06:24:12.725Z,11.19
2024-04-10T06:24:50.513Z,11.22
2024-04-10T06:25:50.291Z,11.19
2024-04-10T06:26:50.426Z,11.17
2024-04-10T06:27:50.646Z,11.11
2024-04-10T06:28:50.455Z,11.11
2024-04-10T06:29:50.584Z,11.11
2024-04-10T06:30:50.321Z,11.07
2024-04-10T06:31:50.564Z,11.07
2024-04-10T06:32:50.387Z,11.06
2024-04-10T06:34:12.739Z,11.03
2024-04-10T06:34:52.252Z,11.04
2024-04-10T06:35:50.512Z,11.04
2024-04-10T06:36:50.230Z,11.06
2024-04-10T06:37:50.479Z,11.10
2024-04-10T06:38:50.167Z,11.21
2024-04-10T06:39:50.382Z,11.36
2024-04-10T06:40:50.187Z,11.49
2024-04-10T06:41:50.367Z,11.61
2024-04-10T06:42:50.082Z,11.76
2024-04-10T06:44:10.627Z,11.91
2024-04-10T06:44:50.116Z,12.02
2024-04-10T06:45:50.334Z,12.14
2024-04-10T06:46:50.143Z,12.28
2024-04-10T06:47:51.797Z,12.39
2024-04-10T06:48:50.275Z,12.52
2024-04-10T06:49:50.921Z,12.65
2024-04-10T06:50:50.079Z,12.79
2024-04-10T06:51:50.283Z,12.90
2024-04-10T06:52:50.070Z,13.01
2024-04-10T06:54:12.232Z,13.20
2024-04-10T06:54:50.036Z,13.29
2024-04-10T06:55:50.259Z,13.52
2024-04-10T06:56:50.003Z,13.75
2024-04-10T06:57:50.182Z,13.95
2024-04-10T06:58:49.962Z,14.06
2024-04-10T06:59:50.177Z,14.03
2024-04-10T07:00:51.348Z,13.99
2024-04-10T07:01:51.040Z,14.10
2024-04-10T07:02:50.390Z,14.21
2024-04-10T07:04:12.121Z,14.39
2024-04-10T07:04:51.264Z,14.50
2024-04-10T07:05:50.349Z,14.60
2024-04-10T07:06:49.831Z,14.70
2024-04-10T07:07:50.076Z,14.83
2024-04-10T07:08:49.842Z,14.95
2024-04-10T07:09:49.988Z,14.98
2024-04-10T07:10:50.343Z,15.07
2024-04-10T07:11:50.005Z,15.16
2024-04-10T07:12:50.166Z,15.17
2024-04-10T07:14:09.967Z,15.31
2024-04-10T07:14:50.092Z,15.41
2024-04-10T07:15:49.845Z,15.53
2024-04-10T07:16:50.144Z,15.72
2024-04-10T07:17:49.927Z,15.84
2024-04-10T07:18:50.033Z,15.94
2024-04-10T07:19:49.851Z,16.23
2024-04-10T07:20:49.950Z,16.43
2024-04-10T07:21:49.672Z,16.68
2024-04-10T07:22:49.964Z,16.86
2024-04-10T07:24:10.133Z,17.18
2024-04-10T07:24:49.853Z,17.31
2024-04-10T07:25:50.119Z,17.63
2024-04-10T07:26:49.843Z,17.96
2024-04-10T07:27:49.999Z,18.10
2024-04-10T07:28:49.740Z,18.32
2024-04-10T07:29:49.931Z,18.54
2024-04-10T07:30:49.666Z,18.63
2024-04-10T07:31:49.964Z,18.95
2024-04-10T07:32:49.758Z,19.23
2024-04-10T07:34:09.975Z,19.46
2024-04-10T07:34:49.618Z,19.62
2024-04-10T07:35:49.808Z,19.71
2024-04-10T07:36:50.239Z,19.77
2024-04-10T07:37:49.853Z,19.87
2024-04-10T07:38:49.491Z,19.94
2024-04-10T07:39:49.706Z,19.99
2024-04-10T07:40:49.943Z,20.14
2024-04-10T07:41:49.724Z,20.18
2024-04-10T07:42:49.898Z,20.36
2024-04-10T07:44:09.756Z,20.52
2024-04-10T07:44:49.907Z,20.62
2024-04-10T07:45:49.570Z,20.92
2024-04-10T07:46:50.070Z,20.98
2024-04-10T07:47:49.688Z,21.22
2024-04-10T07:48:49.938Z,21.53
2024-04-10T07:49:49.578Z,21.80
2024-04-10T07:50:49.701Z,22.12
2024-04-10T07:51:49.416Z,22.17
2024-04-10T07:52:49.670Z,22.35
2024-04-10T07:54:19.071Z,22.72
2024-04-10T07:54:48.793Z,22.86
2024-04-10T07:55:49.763Z,22.90
2024-04-10T07:56:49.753Z,23.01
2024-04-10T07:57:49.510Z,23.23
2024-04-10T07:58:49.770Z,23.22
2024-04-10T07:59:51.384Z,23.17
2024-04-10T08:00:49.733Z,23.13
2024-04-10T08:01:49.424Z,23.36
2024-04-10T08:02:49.736Z,23.54
2024-04-10T08:04:09.698Z,23.66
2024-04-10T08:04:49.658Z,23.50
2024-04-10T08:05:49.436Z,23.32
2024-04-10T08:06:49.514Z,23.27
2024-04-10T08:07:49.239Z,23.39
2024-04-10T08:08:49.455Z,23.38
2024-04-10T08:09:49.172Z,22.21
2024-04-10T08:10:49.471Z,22.33
2024-04-10T08:11:51.591Z,22.49
2024-04-10T08:12:54.607Z,21.75
2024-04-10T08:14:09.443Z,20.92
2024-04-10T08:14:49.588Z,20.31
2024-04-10T08:15:49.296Z,19.63
2024-04-10T08:16:49.594Z,19.07
2024-04-10T08:17:49.226Z,19.02
2024-04-10T08:18:49.534Z,19.19
2024-04-10T08:19:49.178Z,18.57
2024-04-10T08:20:49.405Z,18.17
2024-04-10T08:21:49.101Z,17.89
2024-04-10T08:22:49.347Z,17.72
2024-04-10T08:24:09.626Z,17.62
2024-04-10T08:24:49.278Z,17.51
2024-04-10T08:25:49.013Z,17.44
2024-04-10T08:26:49.228Z,17.55
2024-04-10T08:27:49.444Z,17.33
2024-04-10T08:28:49.169Z,17.31
2024-04-10T08:29:49.442Z,17.12
2024-04-10T08:30:49.114Z,18.23
2024-04-10T08:31:49.334Z,18.39
2024-04-10T08:32:49.258Z,18.35
2024-04-10T08:34:09.567Z,18.65
2024-04-10T08:34:49.497Z,19.47
2024-04-10T08:35:49.235Z,19.48
2024-04-10T08:36:49.065Z,18.99
2024-04-10T08:40:07.716Z,18.80
2024-04-10T08:40:19.792Z,21.54
2024-04-10T08:42:16.418Z,21.53
2024-04-10T08:42:23.213Z,22.54
2024-04-10T08:43:23.069Z,22.12
2024-04-10T08:44:23.251Z,22.00
2024-04-10T08:48:11.105Z,23.02
2024-04-10T08:48:17.497Z,24.55
2024-04-10T08:49:18.689Z,24.10
2024-04-10T08:50:34.389Z,24.49
2024-04-10T08:51:18.596Z,24.46
2024-04-10T08:52:18.335Z,23.50
2024-04-10T08:53:17.596Z,23.15
2024-04-10T08:54:17.154Z,23.36
2024-04-10T08:55:18.657Z,22.47
2024-04-10T08:56:17.901Z,22.98
2024-04-10T08:57:36.693Z,22.76
2024-04-10T08:58:17.357Z,23.16
2024-04-10T08:59:17.653Z,22.15
2024-04-10T09:00:18.478Z,21.52
2024-04-10T09:01:18.613Z,21.24
2024-04-10T09:02:18.372Z,22.06
2024-04-10T09:03:18.695Z,22.46
2024-04-10T09:04:18.504Z,22.39
2024-04-10T09:05:17.697Z,22.09
2024-04-10T09:06:18.424Z,22.09
2024-04-10T09:07:36.179Z,22.21
2024-04-10T09:08:17.388Z,22.73
2024-04-10T09:09:17.641Z,23.63
2024-04-10T09:10:18.168Z,24.06
2024-04-10T09:11:17.327Z,24.16
2024-04-10T09:12:17.736Z,23.36
2024-04-10T09:13:18.360Z,24.21
2024-04-10T09:14:18.120Z,24.31
2024-04-10T09:15:18.385Z,25.10
2024-04-10T09:16:16.971Z,25.94
2024-04-10T09:17:36.488Z,24.53
2024-04-10T09:18:18.189Z,24.84
2024-04-10T09:19:18.660Z,25.42
2024-04-10T09:20:18.337Z,25.83
2024-04-10T09:21:18.412Z,26.12
2024-04-10T09:22:17.167Z,26.25
2024-04-10T09:23:17.331Z,26.50
2024-04-10T09:24:17.671Z,25.30
2024-04-10T09:25:36.033Z,25.80
2024-04-10T09:26:18.331Z,25.64
2024-04-10T09:27:36.032Z,24.22
2024-04-10T09:28:16.977Z,23.68
2024-04-10T09:29:17.056Z,22.98
2024-04-10T09:30:17.070Z,22.35
2024-04-10T09:31:18.079Z,21.47
2024-04-10T09:32:18.382Z,20.87
2024-04-10T09:33:18.171Z,21.13
2024-04-10T09:34:32.943Z,22.17
2024-04-10T09:35:18.140Z,22.91
2024-04-10T09:36:17.899Z,22.35
2024-04-10T09:37:36.175Z,21.34
2024-04-10T09:38:17.430Z,21.06
2024-04-10T09:39:18.128Z,20.61
2024-04-10T09:40:15.959Z,21.52
2024-04-10T09:41:17.305Z,21.17
2024-04-10T09:42:18.044Z,22.18
2024-04-10T09:43:54.713Z,23.43
2024-04-10T09:44:16.208Z,24.62
2024-04-10T09:48:19.746Z,25.65
2024-04-10T09:48:25.714Z,27.43
2024-04-10T09:49:46.345Z,26.81
2024-04-10T09:50:25.082Z,26.05
2024-04-10T09:51:25.248Z,24.84
2024-04-10T09:52:25.481Z,23.69
2024-04-10T09:58:44.955Z,23.84
2024-04-10T09:58:51.671Z,28.36
2024-04-10T09:59:52.696Z,27.14
2024-04-10T10:00:51.847Z,26.50
2024-04-10T10:04:39.055Z,26.35
2024-04-10T10:04:45.994Z,27.79
2024-04-10T10:06:04.741Z,27.84
2024-04-10T10:06:46.325Z,26.88
2024-04-10T10:07:46.231Z,25.51
2024-04-10T10:08:46.403Z,24.43
2024-04-10T10:10:00.652Z,24.13
2024-04-10T10:10:46.397Z,24.87
2024-04-10T10:11:45.431Z,23.93
2024-04-10T10:12:46.360Z,23.23
2024-04-10T10:13:46.209Z,22.55
2024-04-10T10:14:46.479Z,21.84
2024-04-10T10:16:04.809Z,21.13
2024-04-10T10:16:46.450Z,20.91
2024-04-10T10:17:53.933Z,20.69
2024-04-10T10:18:47.575Z,20.38
2024-04-10T10:19:46.282Z,20.14
2024-04-10T10:20:45.646Z,20.06
2024-04-10T10:22:38.873Z,20.79
2024-04-10T10:22:45.371Z,22.39
2024-04-10T10:23:46.588Z,21.84
2024-04-10T10:24:45.045Z,21.59
2024-04-10T10:26:04.578Z,21.25
2024-04-10T10:26:46.325Z,20.94
2024-04-10T10:27:45.594Z,20.61
2024-04-10T10:28:46.356Z,20.47
2024-04-10T10:29:46.234Z,20.84
2024-04-10T10:30:46.701Z,20.48
2024-04-10T10:31:46.265Z,20.29
2024-04-10T10:38:41.699Z,21.64
2024-04-10T10:38:48.641Z,27.31
2024-04-10T10:39:49.281Z,27.17
2024-04-10T10:41:09.124Z,25.85
2024-04-10T10:41:50.280Z,25.20
2024-04-10T10:42:49.032Z,24.43
2024-04-10T10:43:48.297Z,23.63
2024-04-10T10:46:24.076Z,23.48
2024-04-10T10:46:28.827Z,25.39
2024-04-10T10:47:29.656Z,24.53
2024-04-10T10:48:29.783Z,23.88
2024-04-10T10:49:29.607Z,23.23
2024-04-10T10:50:29.795Z,22.68
2024-04-10T10:51:51.359Z,21.92
2024-04-10T10:52:29.732Z,21.67
2024-04-10T10:53:35.790Z,21.31
2024-04-10T10:54:29.547Z,21.03
2024-04-10T10:55:29.267Z,20.88
2024-04-10T10:57:28.479Z,21.84
2024-04-10T10:57:34.687Z,23.39
2024-04-10T10:58:34.690Z,22.90
2024-04-10T10:59:35.789Z,22.39
2024-04-10T11:00:35.089Z,21.84
2024-04-10T11:01:53.731Z,21.34
2024-04-10T11:02:36.011Z,21.07
2024-04-10T11:03:35.775Z,20.88
2024-04-10T11:04:36.174Z,20.72
2024-04-10T11:05:35.786Z,20.61
2024-04-10T11:06:34.761Z,20.48
2024-04-10T11:07:35.729Z,20.39
2024-04-10T11:08:36.040Z,20.29
2024-04-10T11:09:35.307Z,20.05
2024-04-10T11:10:59.641Z,20.32
2024-04-10T11:21:40.461Z,22.02
2024-04-10T11:21:47.197Z,28.18
2024-04-10T11:22:48.485Z,26.63
2024-04-10T11:23:48.319Z,25.33
2024-04-10T11:26:14.021Z,25.52
2024-04-10T11:27:20.285Z,26.40
2024-04-10T11:27:25.013Z,26.66
2024-04-10T11:28:26.743Z,26.76
2024-04-10T11:29:25.984Z,26.43
2024-04-10T11:30:25.663Z,26.52
2024-04-10T11:31:46.503Z,26.37
2024-04-10T11:32:25.798Z,26.37
2024-04-10T11:33:26.078Z,26.43
2024-04-10T11:34:25.751Z,26.45
2024-04-10T11:35:52.952Z,26.54
2024-04-10T11:36:25.593Z,26.97
2024-04-10T11:37:45.294Z,27.25
2024-04-10T11:38:29.607Z,27.47
2024-04-10T11:40:16.795Z,27.67
2024-04-10T11:40:24.881Z,27.72
2024-04-10T11:42:14.112Z,26.88
2024-04-10T11:42:24.874Z,26.76
2024-04-10T11:43:25.580Z,25.83
2024-04-10T11:44:25.850Z,25.61
2024-04-10T11:45:25.531Z,25.94
2024-04-10T11:46:25.755Z,26.07
2024-04-10T11:47:25.600Z,26.40
2024-04-10T11:48:27.812Z,26.54
2024-04-10T11:49:46.175Z,26.51
2024-04-10T11:50:25.761Z,26.43
2024-04-10T11:51:47.418Z,26.39
2024-04-10T11:52:25.677Z,26.18
2024-04-10T11:53:25.448Z,26.06
2024-04-10T11:54:25.636Z,26.18
2024-04-10T11:55:25.366Z,26.13
2024-04-10T11:56:25.610Z,25.98
2024-04-10T11:57:25.299Z,25.82
2024-04-10T11:58:25.503Z,25.61
2024-04-10T11:59:25.505Z,25.21
2024-04-10T12:00:25.487Z,24.85
2024-04-10T12:01:45.226Z,24.57
2024-04-10T12:02:25.531Z,24.40
2024-04-10T12:03:25.276Z,24.49
2024-04-10T12:04:25.467Z,24.39
2024-04-10T12:05:25.696Z,24.53
2024-04-10T12:06:25.442Z,24.39
2024-04-10T12:07:25.575Z,24.08
2024-04-10T12:08:25.313Z,24.02
2024-04-10T12:09:25.505Z,24.10
2024-04-10T12:10:25.216Z,24.00
2024-04-10T12:11:47.037Z,23.53
2024-04-10T12:12:25.300Z,23.38
2024-04-10T12:13:25.433Z,23.01
2024-04-10T12:14:25.190Z,22.70
2024-04-10T12:15:25.397Z,22.92
2024-04-10T12:16:25.107Z,23.25
2024-04-10T12:17:25.432Z,23.63
2024-04-10T12:18:32.444Z,23.68
2024-04-10T12:19:25.036Z,23.90
2024-04-10T12:20:25.463Z,23.97
2024-04-10T12:21:45.489Z,24.06
2024-04-10T12:22:25.201Z,24.12
2024-04-10T12:23:25.483Z,23.95
2024-04-10T12:24:25.145Z,24.00
2024-04-10T12:25:25.406Z,23.80
2024-04-10T12:26:25.114Z,23.43
2024-04-10T12:27:25.313Z,22.85
2024-04-10T12:28:25.039Z,22.68
2024-04-10T12:29:25.322Z,22.75
2024-04-10T12:30:24.991Z,22.85
2024-04-10T12:31:45.231Z,23.60
2024-04-10T12:32:25.024Z,24.02
2024-04-10T12:33:25.296Z,23.90
2024-04-10T12:34:25.093Z,23.36
2024-04-10T12:35:25.187Z,23.83
2024-04-10T12:36:35.313Z,24.20
2024-04-10T12:37:25.019Z,24.34
2024-04-10T12:38:25.256Z,24.24
2024-04-10T12:39:24.960Z,24.10
2024-04-10T12:40:25.193Z,24.10
2024-04-10T12:41:44.957Z,24.18
2024-04-10T12:42:25.160Z,24.42
2024-04-10T12:43:26.831Z,24.81
2024-04-10T12:44:25.176Z,24.99
2024-04-10T12:45:24.830Z,25.17
2024-04-10T12:46:25.642Z,25.20
2024-04-10T12:47:24.831Z,25.13
2024-04-10T12:48:25.079Z,24.87
2024-04-10T12:49:24.771Z,24.73
2024-04-10T12:50:25.017Z,24.50
2024-04-10T12:51:45.183Z,24.47
2024-04-10T12:52:24.913Z,24.47
2024-04-10T12:53:25.192Z,24.24
2024-04-10T12:54:24.885Z,23.94
2024-04-10T12:55:25.112Z,23.78
2024-04-10T12:56:24.859Z,23.48
2024-04-10T12:57:25.075Z,23.55
2024-04-10T12:58:24.782Z,23.58
2024-04-10T12:59:25.080Z,23.65
2024-04-10T13:00:24.782Z,23.61
2024-04-10T13:01:44.099Z,23.39
2024-04-10T13:02:24.147Z,23.32
2024-04-10T13:03:26.361Z,23.05
2024-04-10T13:04:24.649Z,22.88
2024-04-10T13:05:24.711Z,22.68
2024-04-10T13:06:26.024Z,22.57
2024-04-10T13:07:26.049Z,22.37
2024-04-10T13:08:26.074Z,22.37
2024-04-10T13:09:25.526Z,22.54
2024-04-10T13:10:25.977Z,22.49
2024-04-10T13:11:45.878Z,22.68
2024-04-10T13:12:25.975Z,22.64
2024-04-10T13:13:31.506Z,22.60
2024-04-10T13:14:27.019Z,22.92
2024-04-10T13:15:25.924Z,23.27
2024-04-10T13:16:25.922Z,23.69
2024-04-10T13:17:25.782Z,23.72
2024-04-10T13:18:26.504Z,23.73
2024-04-10T13:19:26.174Z,23.63
2024-04-10T13:20:26.613Z,23.27
2024-04-10T13:21:44.790Z,22.97
2024-04-10T13:22:26.495Z,22.77
2024-04-10T13:23:25.617Z,22.43
2024-04-10T13:24:26.558Z,21.99
2024-04-10T13:25:26.354Z,21.82
2024-04-10T13:26:26.667Z,21.67
2024-04-10T13:27:26.375Z,21.75
2024-04-10T13:28:25.042Z,21.98
2024-04-10T13:29:25.533Z,22.05
2024-04-10T13:30:26.243Z,22.06